createdAt,value
2022-11-06T00:01:37.712Z,8.94
2022-11-06T00:05:59.970Z,8.88
2022-11-06T00:10:01.867Z,8.85
2022-11-06T00:14:04.693Z,8.75
2022-11-06T00:18:06.631Z,8.76
2022-11-06T00:22:08.258Z,8.84
2022-11-06T00:26:13.308Z,8.78
2022-11-06T00:30:14.984Z,8.85
2022-11-06T00:34:16.917Z,8.76
2022-11-06T00:38:18.702Z,8.76
2022-11-06T00:42:20.765Z,8.69
2022-11-06T00:46:23.293Z,8.76
2022-11-06T00:50:26.592Z,8.72
2022-11-06T00:54:28.265Z,8.66
2022-11-06T00:58:30.187Z,8.54
2022-11-06T01:02:32.057Z,8.60
2022-11-06T01:06:36.959Z,8.59
2022-11-06T01:10:38.602Z,8.61
2022-11-06T01:14:41.529Z,8.57
2022-11-06T01:18:44.568Z,8.59
2022-11-06T01:22:46.493Z,8.61
2022-11-06T01:27:12.026Z,8.59
2022-11-06T01:31:17.778Z,8.54
2022-11-06T01:35:19.458Z,8.47
2022-11-06T01:39:21.565Z,8.50
2022-11-06T01:43:26.134Z,8.46
2022-11-06T01:47:29.698Z,8.33
2022-11-06T01:51:36.490Z,8.33
2022-11-06T01:55:42.964Z,8.25
2022-11-06T01:59:45.783Z,8.22
2022-11-06T02:04:05.329Z,8.24
2022-11-06T02:08:10.290Z,8.06
2022-11-06T02:13:05.892Z,7.95
2022-11-06T02:17:39.931Z,7.91
2022-11-06T02:22:11.048Z,7.95
2022-11-06T02:26:28.286Z,7.89
2022-11-06T02:30:36.670Z,7.80
2022-11-06T02:34:41.977Z,7.79
2022-11-06T02:38:49.796Z,7.80
2022-11-06T02:42:54.694Z,7.59
2022-11-06T02:47:05.011Z,7.46
2022-11-06T02:51:10.672Z,7.24
2022-11-06T02:55:19.666Z,7.06
2022-11-06T02:59:32.111Z,6.97
2022-11-06T03:03:39.529Z,6.91
2022-11-06T03:07:50.513Z,6.79
2022-11-06T03:12:01.647Z,6.71
2022-11-06T03:16:12.663Z,6.60
2022-11-06T03:20:41.998Z,6.47
2022-11-06T03:24:52.071Z,6.43
2022-11-06T03:29:20.267Z,6.42
2022-11-06T03:33:32.186Z,6.45
2022-11-06T03:37:42.532Z,6.44
2022-11-06T03:42:06.435Z,6.37
2022-11-06T03:46:19.434Z,6.32
2022-11-06T03:51:02.333Z,6.25
2022-11-06T03:55:14.891Z,6.12
2022-11-06T03:59:23.286Z,6.05
2022-11-06T04:03:37.808Z,5.98
2022-11-06T04:08:04.281Z,5.87
2022-11-06T04:12:27.299Z,5.67
2022-11-06T04:16:33.948Z,5.44
2022-11-06T04:21:05.600Z,5.43
2022-11-06T04:25:38.058Z,5.25
2022-11-06T04:30:07.386Z,5.18
2022-11-06T04:34:30.762Z,5.00
2022-11-06T04:38:53.896Z,4.90
2022-11-06T04:43:03.599Z,4.67
2022-11-06T04:47:09.244Z,4.62
2022-11-06T04:51:12.533Z,4.48
2022-11-06T04:55:14.255Z,4.26
2022-11-06T04:59:18.171Z,4.11
2022-11-06T05:03:19.941Z,4.02
2022-11-06T05:07:21.835Z,3.91
2022-11-06T05:11:23.543Z,3.87
2022-11-06T05:15:25.532Z,3.74
2022-11-06T05:19:27.195Z,3.62
2022-11-06T05:23:29.155Z,3.51
2022-11-06T05:27:30.841Z,3.54
2022-11-06T05:31:33.030Z,3.38
2022-11-06T05:35:34.678Z,3.34
2022-11-06T05:39:41.427Z,3.29
2022-11-06T05:43:43.701Z,3.19
2022-11-06T05:47:45.647Z,3.07
2022-11-06T05:51:47.568Z,3.02
2022-11-06T05:55:49.612Z,2.99
2022-11-06T05:59:51.309Z,2.96
2022-11-06T06:03:53.307Z,2.96
2022-11-06T06:07:55.150Z,3.00
2022-11-06T06:11:57.105Z,3.08
2022-11-06T06:16:01.705Z,3.21
2022-11-06T06:20:04.196Z,3.35
2022-11-06T06:24:06.552Z,3.50
2022-11-06T06:28:08.442Z,3.74
2022-11-06T06:32:10.301Z,4.18
2022-11-06T06:36:12.294Z,4.47
2022-11-06T06:40:13.902Z,4.80
2022-11-06T06:44:16.564Z,4.98
2022-11-06T06:48:18.241Z,5.22
2022-11-06T06:52:20.162Z,5.33
2022-11-06T06:56:22.005Z,5.42
2022-11-06T07:00:23.988Z,5.39
2022-11-06T07:04:25.819Z,5.60
2022-11-06T07:08:28.459Z,5.57
2022-11-06T07:12:30.090Z,5.62
2022-11-06T07:16:32.572Z,5.66
2022-11-06T07:20:35.599Z,5.68
2022-11-06T07:24:37.619Z,5.81
2022-11-06T07:28:39.626Z,6.08
2022-11-06T07:32:41.776Z,5.99
2022-11-06T07:36:43.437Z,6.04
2022-11-06T07:40:45.363Z,6.30
2022-11-06T07:44:47.046Z,6.49
2022-11-06T07:48:49.955Z,6.26
2022-11-06T07:52:51.631Z,6.46
2022-11-06T07:56:53.746Z,6.55
2022-11-06T08:00:57.393Z,6.55
2022-11-06T08:04:59.394Z,6.60
2022-11-06T08:09:05.433Z,6.66
2022-11-06T08:13:07.470Z,6.83
2022-11-06T08:17:09.153Z,6.88
2022-11-06T08:21:11.111Z,6.97
2022-11-06T08:25:12.741Z,6.82
2022-11-06T08:29:15.042Z,6.61
2022-11-06T08:33:16.782Z,6.80
2022-11-06T08:37:18.751Z,6.78
2022-11-06T08:41:20.459Z,6.77
2022-11-06T08:45:22.459Z,6.84
2022-11-06T08:49:24.077Z,6.77
2022-11-06T08:53:26.070Z,6.82
2022-11-06T08:57:28.309Z,6.95
2022-11-06T09:01:30.935Z,6.98
2022-11-06T09:05:32.875Z,7.04
2022-11-06T09:09:35.137Z,7.18
2022-11-06T09:13:36.815Z,7.27
2022-11-06T09:17:48.653Z,7.28
2022-11-06T09:21:54.548Z,7.35
2022-11-06T09:25:57.826Z,7.45
2022-11-06T09:29:59.514Z,7.37
2022-11-06T09:34:01.492Z,7.68
2022-11-06T09:38:10.165Z,7.63
2022-11-06T09:42:27.389Z,7.53
2022-11-06T09:46:33.941Z,7.34
2022-11-06T09:50:43.136Z,7.51
2022-11-06T09:54:56.417Z,7.94
2022-11-06T09:59:05.481Z,7.94
2022-11-06T10:03:16.349Z,7.82
2022-11-06T10:07:28.898Z,7.61
2022-11-06T10:11:51.960Z,7.61
2022-11-06T10:16:08.053Z,7.65
2022-11-06T10:20:23.646Z,7.52
2022-11-06T10:24:47.397Z,7.66
2022-11-06T10:29:29.029Z,7.50
2022-11-06T10:33:49.591Z,7.79
2022-11-06T10:38:16.229Z,7.93
2022-11-06T10:42:38.270Z,7.77
2022-11-06T10:46:46.548Z,7.86
2022-11-06T10:51:08.871Z,8.17
2022-11-06T10:55:41.860Z,8.34
2022-11-06T10:59:43.858Z,8.69
2022-11-06T11:03:47.268Z,8.61
2022-11-06T11:07:50.512Z,8.94
2022-11-06T11:11:52.233Z,8.71
2022-11-06T11:15:54.273Z,8.56
2022-11-06T11:19:55.992Z,8.79
2022-11-06T11:24:00.900Z,8.57
2022-11-06T11:28:04.945Z,8.35
2022-11-06T11:32:07.544Z,8.43
2022-11-06T11:36:10.089Z,8.30
2022-11-06T11:40:24.327Z,8.52
2022-11-06T11:44:25.956Z,8.68
2022-11-06T11:48:40.387Z,8.76
2022-11-06T11:52:44.286Z,8.98
2022-11-06T11:57:04.056Z,9.02
2022-11-06T12:01:08.715Z,8.95
2022-11-06T12:05:27.019Z,8.82
2022-11-06T12:09:32.954Z,8.52
2022-11-06T12:13:34.883Z,8.48
2022-11-06T12:17:40.334Z,8.53
2022-11-06T12:21:45.963Z,8.68
2022-11-06T12:25:58.921Z,9.00
2022-11-06T12:30:11.713Z,9.18
2022-11-06T12:34:37.343Z,9.33
2022-11-06T12:39:01.850Z,9.42
2022-11-06T12:43:56.203Z,9.33
2022-11-06T12:48:31.722Z,9.35
2022-11-06T12:53:00.881Z,9.39
2022-11-06T12:57:12.819Z,9.34
2022-11-06T13:01:33.481Z,9.35
2022-11-06T13:05:47.011Z,9.47
2022-11-06T13:09:58.167Z,9.44
2022-11-06T13:14:13.905Z,9.30
2022-11-06T13:18:25.453Z,9.47
2022-11-06T13:22:40.696Z,9.42
2022-11-06T13:26:47.844Z,9.36
2022-11-06T13:30:51.426Z,9.25
2022-11-06T13:34:56.165Z,9.10
2022-11-06T13:39:07.604Z,9.06
2022-11-06T13:43:23.091Z,9.07
2022-11-06T13:47:47.562Z,8.93
2022-11-06T13:51:57.284Z,8.90
2022-11-06T13:56:23.726Z,8.90
2022-11-06T14:01:02.620Z,8.75
2022-11-06T14:05:22.922Z,8.71
2022-11-06T14:09:27.621Z,8.47
2022-11-06T14:13:33.501Z,8.37
2022-11-06T14:17:35.200Z,8.18
2022-11-06T14:21:37.109Z,8.19
2022-11-06T14:25:41.940Z,8.03
2022-11-06T14:29:55.879Z,7.84
2022-11-06T14:33:59.816Z,7.67
2022-11-06T14:38:30.796Z,7.48
2022-11-06T14:42:36.428Z,7.27
2022-11-06T14:46:38.399Z,6.94
2022-11-06T14:50:41.758Z,6.75
2022-11-06T14:54:53.827Z,6.49
2022-11-06T14:59:20.730Z,6.24
2022-11-06T15:03:34.767Z,6.08
2022-11-06T15:08:03.993Z,5.93
2022-11-06T15:12:04.161Z,5.83
2022-11-06T15:16:11.974Z,5.67
2022-11-06T15:20:22.927Z,5.51
2022-11-06T15:24:28.986Z,5.37
2022-11-06T15:28:43.935Z,5.36
2022-11-06T15:32:49.269Z,5.30
2022-11-06T15:36:59.783Z,5.25
2022-11-06T15:41:02.273Z,5.27
2022-11-06T15:45:19.001Z,5.13
2022-11-06T15:49:22.015Z,4.95
2022-11-06T15:53:27.828Z,4.81
2022-11-06T15:57:30.242Z,4.65
2022-11-06T16:01:33.898Z,4.57
2022-11-06T16:05:37.539Z,4.42
2022-11-06T16:09:41.752Z,4.28
2022-11-06T16:13:46.529Z,4.04
2022-11-06T16:17:48.538Z,3.99
2022-11-06T16:21:57.896Z,3.82
2022-11-06T16:26:03.618Z,3.78
2022-11-06T16:30:07.605Z,3.76
2022-11-06T16:34:37.638Z,3.68
2022-11-06T16:38:44.841Z,3.66
2022-11-06T16:43:01.507Z,3.62
2022-11-06T16:47:15.275Z,3.54
2022-11-06T16:51:32.667Z,3.50
2022-11-06T16:55:35.015Z,3.39
2022-11-06T16:59:37.451Z,3.47
2022-11-06T17:03:49.033Z,3.41
2022-11-06T17:08:05.194Z,3.34
2022-11-06T17:12:10.601Z,3.26
2022-11-06T17:16:15.152Z,3.22
2022-11-06T17:20:19.390Z,3.16
2022-11-06T17:24:37.791Z,3.04
2022-11-06T17:28:40.490Z,3.05
2022-11-06T17:32:42.497Z,3.08
2022-11-06T17:36:44.377Z,2.92
2022-11-06T17:40:47.318Z,2.90
2022-11-06T17:44:49.424Z,2.84
2022-11-06T17:48:51.020Z,2.88
2022-11-06T17:52:52.967Z,2.89
2022-11-06T17:56:55.884Z,2.89
2022-11-06T18:01:08.879Z,2.88
2022-11-06T18:05:10.713Z,2.76
2022-11-06T18:09:14.564Z,2.70
2022-11-06T18:13:16.226Z,2.56
2022-11-06T18:17:18.174Z,2.56
2022-11-06T18:21:20.477Z,2.51
2022-11-06T18:25:22.383Z,2.42
2022-11-06T18:29:24.152Z,2.53
2022-11-06T18:33:27.522Z,2.36
2022-11-06T18:37:29.203Z,2.32
2022-11-06T18:41:31.993Z,2.34
2022-11-06T18:45:36.790Z,2.33
2022-11-06T18:49:38.703Z,2.24
2022-11-06T18:53:41.710Z,2.22
2022-11-06T18:57:43.621Z,2.11
2022-11-06T19:01:45.985Z,1.93
2022-11-06T19:05:50.952Z,1.85
2022-11-06T19:09:52.888Z,1.79
2022-11-06T19:13:54.878Z,1.77
2022-11-06T19:17:56.604Z,1.63
2022-11-06T19:21:58.671Z,1.63
2022-11-06T19:26:10.672Z,1.47
2022-11-06T19:30:22.360Z,1.58
2022-11-06T19:34:25.574Z,1.48
2022-11-06T19:38:28.198Z,1.34
2022-11-06T19:42:29.875Z,1.41
2022-11-06T19:46:35.993Z,1.32
2022-11-06T19:50:58.720Z,1.35
2022-11-06T19:55:26.337Z,1.30
2022-11-06T19:59:23.543Z,1.39
2022-11-06T20:03:25.492Z,1.52
2022-11-06T20:07:27.115Z,1.68
2022-11-06T20:11:29.029Z,1.76
2022-11-06T20:15:31.369Z,1.85
2022-11-06T20:19:33.341Z,1.77
2022-11-06T20:23:35.827Z,1.68
2022-11-06T20:27:37.916Z,1.54
2022-11-06T20:31:39.581Z,1.48
2022-11-06T20:35:41.778Z,1.40
2022-11-06T20:39:43.737Z,1.30
2022-11-06T20:43:46.226Z,1.22
2022-11-06T20:47:48.196Z,1.20
2022-11-06T20:52:12.652Z,1.22
2022-11-06T20:56:14.647Z,1.10
2022-11-06T21:00:17.048Z,1.12
2022-11-06T21:04:18.801Z,1.00
2022-11-06T21:08:20.804Z,1.08
2022-11-06T21:12:23.193Z,0.97
2022-11-06T21:16:28.552Z,0.90
2022-11-06T21:20:30.270Z,0.78
2022-11-06T21:24:32.171Z,0.78
2022-11-06T21:28:34.003Z,0.72
2022-11-06T21:32:35.930Z,0.64
2022-11-06T21:36:37.949Z,0.54
2022-11-06T21:40:40.519Z,0.52
2022-11-06T21:44:42.218Z,0.66
2022-11-06T21:48:46.824Z,0.75
2022-11-06T21:53:08.017Z,0.92
2022-11-06T21:57:10.006Z,1.03
2022-11-06T22:01:11.770Z,1.00
2022-11-06T22:05:13.733Z,1.03
2022-11-06T22:09:18.375Z,1.05
2022-11-06T22:13:22.728Z,1.03
2022-11-06T22:17:24.407Z,0.98
2022-11-06T22:21:28.553Z,0.98
2022-11-06T22:25:30.494Z,0.96
2022-11-06T22:29:32.473Z,1.01
2022-11-06T22:33:34.787Z,1.26
2022-11-06T22:37:36.732Z,1.20
2022-11-06T22:41:39.284Z,1.15
2022-11-06T22:45:41.551Z,1.09
2022-11-06T22:49:43.261Z,0.95
2022-11-06T22:53:45.291Z,0.71
2022-11-06T22:57:47.032Z,0.72
2022-11-06T23:01:49.068Z,0.64
2022-11-06T23:05:51.297Z,0.41
2022-11-06T23:09:53.172Z,0.38
2022-11-06T23:13:55.253Z,0.28
2022-11-06T23:17:57.270Z,0.23
2022-11-06T23:22:17.861Z,0.22
2022-11-06T23:26:19.854Z,0.16
2022-11-06T23:30:21.726Z,0.17
2022-11-06T23:34:23.645Z,0.21
2022-11-06T23:38:25.523Z,0.19
2022-11-06T23:42:27.834Z,0.24
2022-11-06T23:46:33.647Z,0.29
2022-11-06T23:50:35.533Z,0.26
2022-11-06T23:54:37.204Z,0.16
2022-11-06T23:58:40.106Z,0.21
